Huvudsida
METAR-TAF:

METAR-TAF

Flygplatser :

Nîmes, Frankrike

latitud: 43-45N, longitud: 004-25E, höjd: 94 m

Aktuellt väderrapport

Denna rapport gjordes för 30 minuter sedan, klockan 05:30 UTC
Vind 17 kt från nord
Temperatur 22°C
Fuktighet 57%
Tryck 1018 hPa
Sikt 10 km eller mer
Inga moln under 1 500 m eller inga cumulonimbus

METAR: LFTW 230530Z AUTO 35017KT CAVOK 22/13 Q1018 BECMG 34015G25KT

Tid: 08:00 (06:00 UTC)

Väderprognos

Denna rapport gjordes för 4 timmar och 0 minuter sedan, klockan 02:00 UTC
Prognos gäller från 23 kl. 03 UTC till 24 kl. 03 UTC
Vind 10 kt från nord/nordväst
Sikt 10 km eller mer
Inga moln under 1 500 m eller inga cumulonimbus
Blir
från 23 kl. 04 UTC till 23 kl. 06 UTC
Vind 15 kt från nord/nordväst i byarna ända upp till 25 kt

TAF: LFTW 230200Z 2303/2403 34010KT CAVOK BECMG 2304/2306 34015G25KT

Aktuella väderrapporter och prognoser från 4000 flygplatser (METAR- och TAF-rapporter).

De tillgängliga stationerna syns som gula och röda prickar på kartan.

För musen över prickarna för att se namnen på stationerna.

Klicka sedan för att få väderrapporter och prognoser.

För att ändra kartan: Klicka på de gröna knapparna med ett svart kors på för att zooma in; den gröna knappen med ett streck på för att zooma ut; eller på de gröna pilarna för angränsande kartor.


METAR-TAF: